Pagina principale
METAR-TAF:

METAR-TAF

Aeroporti :

Aeroporto di Santander

Santander, Spagna

latitudine: 43-26N, longitudine: 003-49W, altezza: 6 m

Osservazione

Il bollettino è stato emesso 41 minuti fa, alle 12:00 UTC
Vento 1 kt da direzioni variabili
Temperature 13°C
Umidità 72%
Pressione 1015 hPa
Visibilità 10 km o più
nessuna nube inferiore a 1500 m e nessun cumulonembo

METAR: LEXJ 191200Z VRB01KT CAVOK 13/08 Q1015

Ora: 13:41 (12:41 UTC)

Previsione

Il bollettino è stato emesso 4 ore e 41 minuti fa, alle 08:00 UTC
Previsione valida dal 19 alle 09 UTC al 20 alle 09 UTC
Vento 8 kt da sud/sud-ovest
Visibilità 10 km o più
Poco nuvoloso ad un'altezza di 3000 ft

TAF: LEXJ 190800Z 1909/2009 21008KT 9999 FEW030 TX15/1914Z TN04/1909Z

Osservazioni e previsioni meteorologiche di più di 4000 aeroporti (messaggi METAR e TAF).

Le stazioni disponibili sono rappresentate dai dischi gialli e rossi sulla carta.

Puntare il mouse per vedere il nome della stazione.

Clicca sopra per visualizzare le osservazioni e previsioni meteorologiche.

Per cambiare la mappa : fare clic sui pulsanti verdi con una croce nera per ingrandire, il pulsante verde con un trattino per diminuire, o sulla freccia verde per le mappe adiacenti.


METAR-TAF: